sensor_id;sensor_type;location;lat;lon;timestamp;P1;durP1;ratioP1;P2;durP2;ratioP2
19024;SDS011;9645;51.448;6.260;2023-07-13T00:01:51;2.53;;;1.43;;
19024;SDS011;9645;51.448;6.260;2023-07-13T00:04:19;3.37;;;1.80;;
19024;SDS011;9645;51.448;6.260;2023-07-13T00:06:51;6.07;;;1.60;;
19024;SDS011;9645;51.448;6.260;2023-07-13T00:09:19;2.63;;;1.77;;
19024;SDS011;9645;51.448;6.260;2023-07-13T00:11:50;6.83;;;1.60;;
19024;SDS011;9645;51.448;6.260;2023-07-13T00:14:18;2.77;;;1.80;;
19024;SDS011;9645;51.448;6.260;2023-07-13T00:16:45;3.90;;;1.80;;
19024;SDS011;9645;51.448;6.260;2023-07-13T00:19:13;5.30;;;1.63;;
19024;SDS011;9645;51.448;6.260;2023-07-13T00:21:40;4.73;;;1.50;;
19024;SDS011;9645;51.448;6.260;2023-07-13T00:24:11;8.43;;;1.80;;
19024;SDS011;9645;51.448;6.260;2023-07-13T00:26:40;1.37;;;1.27;;
19024;SDS011;9645;51.448;6.260;2023-07-13T00:29:09;4.83;;;1.80;;
19024;SDS011;9645;51.448;6.260;2023-07-13T00:31:36;2.43;;;1.87;;
19024;SDS011;9645;51.448;6.260;2023-07-13T00:34:03;3.80;;;1.87;;
19024;SDS011;9645;51.448;6.260;2023-07-13T00:36:30;6.93;;;2.10;;
19024;SDS011;9645;51.448;6.260;2023-07-13T00:38:57;4.77;;;1.80;;
19024;SDS011;9645;51.448;6.260;2023-07-13T00:41:26;4.10;;;1.50;;
19024;SDS011;9645;51.448;6.260;2023-07-13T00:43:53;6.10;;;1.80;;
19024;SDS011;9645;51.448;6.260;2023-07-13T00:46:22;2.43;;;1.93;;
19024;SDS011;9645;51.448;6.260;2023-07-13T00:48:51;12.10;;;1.97;;
19024;SDS011;9645;51.448;6.260;2023-07-13T00:51:23;4.20;;;1.60;;
19024;SDS011;9645;51.448;6.260;2023-07-13T00:53:54;4.47;;;1.70;;
19024;SDS011;9645;51.448;6.260;2023-07-13T00:56:26;5.23;;;1.53;;
19024;SDS011;9645;51.448;6.260;2023-07-13T00:58:55;6.57;;;1.90;;
19024;SDS011;9645;51.448;6.260;2023-07-13T01:01:23;7.70;;;2.10;;
19024;SDS011;9645;51.448;6.260;2023-07-13T01:03:50;5.97;;;2.13;;
19024;SDS011;9645;51.448;6.260;2023-07-13T01:06:19;5.63;;;1.60;;
19024;SDS011;9645;51.448;6.260;2023-07-13T01:08:46;6.97;;;1.87;;
19024;SDS011;9645;51.448;6.260;2023-07-13T01:11:16;4.60;;;1.57;;
19024;SDS011;9645;51.448;6.260;2023-07-13T01:13:47;7.57;;;1.87;;
19024;SDS011;9645;51.448;6.260;2023-07-13T01:16:15;8.07;;;1.97;;
19024;SDS011;9645;51.448;6.260;2023-07-13T01:18:48;7.87;;;1.87;;
19024;SDS011;9645;51.448;6.260;2023-07-13T01:21:17;13.00;;;1.90;;
19024;SDS011;9645;51.448;6.260;2023-07-13T01:23:44;5.70;;;1.70;;
19024;SDS011;9645;51.448;6.260;2023-07-13T01:26:11;5.17;;;1.77;;
19024;SDS011;9645;51.448;6.260;2023-07-13T01:28:39;8.93;;;2.10;;
19024;SDS011;9645;51.448;6.260;2023-07-13T01:31:06;8.17;;;1.80;;
19024;SDS011;9645;51.448;6.260;2023-07-13T01:33:33;4.10;;;1.77;;
19024;SDS011;9645;51.448;6.260;2023-07-13T01:36:01;5.90;;;2.50;;
19024;SDS011;9645;51.448;6.260;2023-07-13T01:38:29;9.30;;;2.00;;
19024;SDS011;9645;51.448;6.260;2023-07-13T01:40:56;4.20;;;1.50;;
19024;SDS011;9645;51.448;6.260;2023-07-13T01:43:23;3.90;;;1.87;;
19024;SDS011;9645;51.448;6.260;2023-07-13T01:45:50;10.47;;;2.17;;
19024;SDS011;9645;51.448;6.260;2023-07-13T01:48:18;8.00;;;2.40;;
19024;SDS011;9645;51.448;6.260;2023-07-13T01:50:45;1.60;;;1.50;;
19024;SDS011;9645;51.448;6.260;2023-07-13T01:53:13;10.47;;;2.00;;
19024;SDS011;9645;51.448;6.260;2023-07-13T01:55:42;5.60;;;2.40;;
19024;SDS011;9645;51.448;6.260;2023-07-13T01:58:09;5.20;;;2.47;;
19024;SDS011;9645;51.448;6.260;2023-07-13T02:00:35;7.07;;;2.40;;
19024;SDS011;9645;51.448;6.260;2023-07-13T02:03:02;7.90;;;2.20;;
19024;SDS011;9645;51.448;6.260;2023-07-13T02:05:30;7.20;;;1.97;;
19024;SDS011;9645;51.448;6.260;2023-07-13T02:07:57;7.03;;;1.70;;
19024;SDS011;9645;51.448;6.260;2023-07-13T02:10:24;5.20;;;2.47;;
19024;SDS011;9645;51.448;6.260;2023-07-13T02:12:52;7.13;;;2.23;;
19024;SDS011;9645;51.448;6.260;2023-07-13T02:15:19;7.10;;;2.10;;
19024;SDS011;9645;51.448;6.260;2023-07-13T02:17:46;8.27;;;2.73;;
19024;SDS011;9645;51.448;6.260;2023-07-13T02:20:14;7.43;;;2.17;;
19024;SDS011;9645;51.448;6.260;2023-07-13T02:22:41;9.90;;;1.60;;
19024;SDS011;9645;51.448;6.260;2023-07-13T02:25:08;6.30;;;2.10;;
19024;SDS011;9645;51.448;6.260;2023-07-13T02:27:35;7.33;;;1.77;;
19024;SDS011;9645;51.448;6.260;2023-07-13T02:30:04;8.20;;;1.90;;
19024;SDS011;9645;51.448;6.260;2023-07-13T02:32:32;7.43;;;1.80;;
19024;SDS011;9645;51.448;6.260;2023-07-13T02:35:00;7.83;;;2.43;;
19024;SDS011;9645;51.448;6.260;2023-07-13T02:37:28;9.40;;;2.40;;
19024;SDS011;9645;51.448;6.260;2023-07-13T02:39:56;9.37;;;2.20;;
19024;SDS011;9645;51.448;6.260;2023-07-13T02:42:26;6.13;;;2.20;;
19024;SDS011;9645;51.448;6.260;2023-07-13T02:44:53;14.03;;;2.27;;
19024;SDS011;9645;51.448;6.260;2023-07-13T02:47:21;10.30;;;2.20;;
19024;SDS011;9645;51.448;6.260;2023-07-13T02:49:48;4.17;;;1.87;;
19024;SDS011;9645;51.448;6.260;2023-07-13T02:52:15;9.20;;;2.57;;
19024;SDS011;9645;51.448;6.260;2023-07-13T02:54:43;5.70;;;2.07;;
19024;SDS011;9645;51.448;6.260;2023-07-13T02:57:10;6.97;;;2.00;;
19024;SDS011;9645;51.448;6.260;2023-07-13T02:59:37;2.80;;;1.80;;
19024;SDS011;9645;51.448;6.260;2023-07-13T03:02:04;5.63;;;1.57;;
19024;SDS011;9645;51.448;6.260;2023-07-13T03:04:34;7.10;;;2.07;;
19024;SDS011;9645;51.448;6.260;2023-07-13T03:07:02;11.03;;;2.40;;
19024;SDS011;9645;51.448;6.260;2023-07-13T03:09:29;6.77;;;1.73;;
19024;SDS011;9645;51.448;6.260;2023-07-13T03:11:57;15.27;;;2.50;;
19024;SDS011;9645;51.448;6.260;2023-07-13T03:14:24;5.67;;;2.10;;
19024;SDS011;9645;51.448;6.260;2023-07-13T03:16:51;4.90;;;2.33;;
19024;SDS011;9645;51.448;6.260;2023-07-13T03:19:18;8.57;;;2.40;;
19024;SDS011;9645;51.448;6.260;2023-07-13T03:21:47;8.97;;;2.20;;
19024;SDS011;9645;51.448;6.260;2023-07-13T03:24:14;11.13;;;2.10;;
19024;SDS011;9645;51.448;6.260;2023-07-13T03:26:41;8.20;;;2.47;;
19024;SDS011;9645;51.448;6.260;2023-07-13T03:29:08;2.77;;;2.00;;
19024;SDS011;9645;51.448;6.260;2023-07-13T03:31:37;11.37;;;2.00;;
19024;SDS011;9645;51.448;6.260;2023-07-13T03:34:04;12.37;;;2.10;;
19024;SDS011;9645;51.448;6.260;2023-07-13T03:36:32;20.13;;;2.30;;
19024;SDS011;9645;51.448;6.260;2023-07-13T03:39:00;7.83;;;1.73;;
19024;SDS011;9645;51.448;6.260;2023-07-13T03:41:29;6.43;;;3.23;;
19024;SDS011;9645;51.448;6.260;2023-07-13T03:43:56;6.53;;;2.43;;
19024;SDS011;9645;51.448;6.260;2023-07-13T03:46:23;9.20;;;2.70;;
19024;SDS011;9645;51.448;6.260;2023-07-13T03:48:51;14.70;;;2.10;;
19024;SDS011;9645;51.448;6.260;2023-07-13T03:51:18;3.53;;;1.90;;
19024;SDS011;9645;51.448;6.260;2023-07-13T03:53:46;6.83;;;2.13;;
19024;SDS011;9645;51.448;6.260;2023-07-13T03:56:15;13.93;;;2.57;;
19024;SDS011;9645;51.448;6.260;2023-07-13T03:58:44;6.90;;;2.33;;
19024;SDS011;9645;51.448;6.260;2023-07-13T04:01:12;6.30;;;2.30;;
19024;SDS011;9645;51.448;6.260;2023-07-13T04:03:41;10.17;;;2.97;;
19024;SDS011;9645;51.448;6.260;2023-07-13T04:06:12;9.80;;;2.80;;
19024;SDS011;9645;51.448;6.260;2023-07-13T04:08:46;12.17;;;2.13;;
19024;SDS011;9645;51.448;6.260;2023-07-13T04:11:16;6.30;;;2.57;;
19024;SDS011;9645;51.448;6.260;2023-07-13T04:13:44;9.00;;;2.70;;
19024;SDS011;9645;51.448;6.260;2023-07-13T04:16:11;5.53;;;2.23;;
19024;SDS011;9645;51.448;6.260;2023-07-13T04:18:38;8.60;;;2.90;;
19024;SDS011;9645;51.448;6.260;2023-07-13T04:21:06;11.33;;;2.20;;
19024;SDS011;9645;51.448;6.260;2023-07-13T04:23:34;9.27;;;2.80;;
19024;SDS011;9645;51.448;6.260;2023-07-13T04:26:01;8.47;;;2.80;;
19024;SDS011;9645;51.448;6.260;2023-07-13T04:28:30;9.03;;;2.50;;
19024;SDS011;9645;51.448;6.260;2023-07-13T04:30:57;8.03;;;2.70;;
19024;SDS011;9645;51.448;6.260;2023-07-13T04:33:24;15.57;;;2.53;;
19024;SDS011;9645;51.448;6.260;2023-07-13T04:35:52;5.00;;;2.83;;
19024;SDS011;9645;51.448;6.260;2023-07-13T04:38:22;10.13;;;3.07;;
19024;SDS011;9645;51.448;6.260;2023-07-13T04:40:51;12.10;;;2.90;;
19024;SDS011;9645;51.448;6.260;2023-07-13T04:43:18;3.87;;;2.57;;
19024;SDS011;9645;51.448;6.260;2023-07-13T04:45:46;6.63;;;2.83;;
19024;SDS011;9645;51.448;6.260;2023-07-13T04:48:13;12.30;;;3.10;;
19024;SDS011;9645;51.448;6.260;2023-07-13T04:50:40;11.13;;;3.20;;
19024;SDS011;9645;51.448;6.260;2023-07-13T04:53:08;5.17;;;2.73;;
19024;SDS011;9645;51.448;6.260;2023-07-13T04:55:35;8.33;;;2.33;;
19024;SDS011;9645;51.448;6.260;2023-07-13T04:58:02;7.13;;;2.73;;
19024;SDS011;9645;51.448;6.260;2023-07-13T05:00:30;12.33;;;3.17;;
19024;SDS011;9645;51.448;6.260;2023-07-13T05:02:58;13.03;;;3.30;;
19024;SDS011;9645;51.448;6.260;2023-07-13T05:05:26;11.63;;;3.20;;
19024;SDS011;9645;51.448;6.260;2023-07-13T05:07:53;12.57;;;2.87;;
19024;SDS011;9645;51.448;6.260;2023-07-13T05:10:20;11.20;;;3.83;;
19024;SDS011;9645;51.448;6.260;2023-07-13T05:12:48;5.40;;;2.97;;
19024;SDS011;9645;51.448;6.260;2023-07-13T05:15:15;10.00;;;3.30;;
19024;SDS011;9645;51.448;6.260;2023-07-13T05:17:45;12.67;;;3.40;;
19024;SDS011;9645;51.448;6.260;2023-07-13T05:20:14;7.20;;;2.80;;
19024;SDS011;9645;51.448;6.260;2023-07-13T05:22:42;10.43;;;3.13;;
19024;SDS011;9645;51.448;6.260;2023-07-13T05:25:09;17.43;;;3.30;;
19024;SDS011;9645;51.448;6.260;2023-07-13T05:27:37;15.83;;;4.33;;
19024;SDS011;9645;51.448;6.260;2023-07-13T05:30:04;19.00;;;4.30;;
19024;SDS011;9645;51.448;6.260;2023-07-13T05:32:35;12.63;;;3.70;;
19024;SDS011;9645;51.448;6.260;2023-07-13T05:35:03;11.70;;;3.53;;
19024;SDS011;9645;51.448;6.260;2023-07-13T05:37:32;21.13;;;3.47;;
19024;SDS011;9645;51.448;6.260;2023-07-13T05:39:58;21.03;;;3.70;;
19024;SDS011;9645;51.448;6.260;2023-07-13T05:42:25;12.73;;;3.50;;
19024;SDS011;9645;51.448;6.260;2023-07-13T05:44:53;12.13;;;3.63;;
19024;SDS011;9645;51.448;6.260;2023-07-13T05:47:20;37.30;;;3.87;;
19024;SDS011;9645;51.448;6.260;2023-07-13T05:49:47;10.10;;;3.37;;
19024;SDS011;9645;51.448;6.260;2023-07-13T05:52:14;17.00;;;4.00;;
19024;SDS011;9645;51.448;6.260;2023-07-13T05:54:42;13.17;;;3.67;;
19024;SDS011;9645;51.448;6.260;2023-07-13T05:57:09;20.97;;;3.80;;
19024;SDS011;9645;51.448;6.260;2023-07-13T05:59:36;14.23;;;3.30;;
19024;SDS011;9645;51.448;6.260;2023-07-13T06:02:04;15.27;;;4.60;;
19024;SDS011;9645;51.448;6.260;2023-07-13T06:04:31;23.77;;;4.03;;
19024;SDS011;9645;51.448;6.260;2023-07-13T06:06:59;11.70;;;3.90;;
19024;SDS011;9645;51.448;6.260;2023-07-13T06:09:26;11.40;;;4.40;;
19024;SDS011;9645;51.448;6.260;2023-07-13T06:11:54;10.03;;;3.33;;
19024;SDS011;9645;51.448;6.260;2023-07-13T06:14:21;13.93;;;3.63;;
19024;SDS011;9645;51.448;6.260;2023-07-13T06:16:48;10.43;;;3.73;;
19024;SDS011;9645;51.448;6.260;2023-07-13T06:19:15;10.50;;;3.70;;
19024;SDS011;9645;51.448;6.260;2023-07-13T06:21:42;14.30;;;4.37;;
19024;SDS011;9645;51.448;6.260;2023-07-13T06:24:10;13.80;;;4.00;;
19024;SDS011;9645;51.448;6.260;2023-07-13T06:26:37;23.70;;;5.20;;
19024;SDS011;9645;51.448;6.260;2023-07-13T06:29:05;17.63;;;5.50;;
19024;SDS011;9645;51.448;6.260;2023-07-13T06:31:32;21.13;;;5.33;;
19024;SDS011;9645;51.448;6.260;2023-07-13T06:33:59;17.87;;;5.00;;
19024;SDS011;9645;51.448;6.260;2023-07-13T06:36:26;14.60;;;5.10;;
19024;SDS011;9645;51.448;6.260;2023-07-13T06:38:53;12.00;;;5.70;;
19024;SDS011;9645;51.448;6.260;2023-07-13T06:41:21;12.67;;;5.00;;
19024;SDS011;9645;51.448;6.260;2023-07-13T06:43:51;18.07;;;5.23;;
19024;SDS011;9645;51.448;6.260;2023-07-13T06:46:19;15.20;;;6.30;;
19024;SDS011;9645;51.448;6.260;2023-07-13T06:48:47;16.70;;;5.30;;
19024;SDS011;9645;51.448;6.260;2023-07-13T06:51:14;21.87;;;5.63;;
19024;SDS011;9645;51.448;6.260;2023-07-13T06:53:41;14.20;;;4.70;;
19024;SDS011;9645;51.448;6.260;2023-07-13T06:56:09;13.17;;;5.27;;
19024;SDS011;9645;51.448;6.260;2023-07-13T06:58:36;21.50;;;4.57;;
19024;SDS011;9645;51.448;6.260;2023-07-13T07:01:04;16.83;;;4.70;;
19024;SDS011;9645;51.448;6.260;2023-07-13T07:03:32;15.30;;;4.87;;
19024;SDS011;9645;51.448;6.260;2023-07-13T07:06:00;15.10;;;4.97;;
19024;SDS011;9645;51.448;6.260;2023-07-13T07:08:27;11.87;;;4.10;;
19024;SDS011;9645;51.448;6.260;2023-07-13T07:10:54;15.30;;;4.97;;
19024;SDS011;9645;51.448;6.260;2023-07-13T07:13:21;12.20;;;4.13;;
19024;SDS011;9645;51.448;6.260;2023-07-13T07:15:49;9.03;;;3.77;;
19024;SDS011;9645;51.448;6.260;2023-07-13T07:18:16;13.37;;;4.50;;
19024;SDS011;9645;51.448;6.260;2023-07-13T07:20:45;10.83;;;4.30;;
19024;SDS011;9645;51.448;6.260;2023-07-13T07:23:11;11.70;;;4.27;;
19024;SDS011;9645;51.448;6.260;2023-07-13T07:25:39;18.40;;;4.60;;
19024;SDS011;9645;51.448;6.260;2023-07-13T07:28:07;11.17;;;5.40;;
19024;SDS011;9645;51.448;6.260;2023-07-13T07:30:34;12.33;;;4.40;;
19024;SDS011;9645;51.448;6.260;2023-07-13T07:33:01;9.20;;;4.57;;
19024;SDS011;9645;51.448;6.260;2023-07-13T07:35:28;15.73;;;4.40;;
19024;SDS011;9645;51.448;6.260;2023-07-13T07:37:58;11.40;;;4.50;;
19024;SDS011;9645;51.448;6.260;2023-07-13T07:40:25;14.70;;;4.53;;
19024;SDS011;9645;51.448;6.260;2023-07-13T07:42:53;9.73;;;3.80;;
19024;SDS011;9645;51.448;6.260;2023-07-13T07:45:20;14.13;;;4.00;;
19024;SDS011;9645;51.448;6.260;2023-07-13T07:47:47;9.70;;;4.10;;
19024;SDS011;9645;51.448;6.260;2023-07-13T07:50:14;12.10;;;4.50;;
19024;SDS011;9645;51.448;6.260;2023-07-13T07:52:42;8.83;;;3.73;;
19024;SDS011;9645;51.448;6.260;2023-07-13T07:55:10;14.23;;;5.20;;
19024;SDS011;9645;51.448;6.260;2023-07-13T07:57:37;14.47;;;4.90;;
19024;SDS011;9645;51.448;6.260;2023-07-13T08:00:05;10.77;;;5.10;;
19024;SDS011;9645;51.448;6.260;2023-07-13T08:02:33;8.40;;;4.30;;
19024;SDS011;9645;51.448;6.260;2023-07-13T08:05:00;14.43;;;4.70;;
19024;SDS011;9645;51.448;6.260;2023-07-13T08:07:27;11.50;;;4.57;;
19024;SDS011;9645;51.448;6.260;2023-07-13T08:09:54;12.30;;;4.47;;
19024;SDS011;9645;51.448;6.260;2023-07-13T08:12:23;10.97;;;5.20;;
19024;SDS011;9645;51.448;6.260;2023-07-13T08:14:50;12.27;;;5.10;;
19024;SDS011;9645;51.448;6.260;2023-07-13T08:17:18;13.13;;;4.90;;
19024;SDS011;9645;51.448;6.260;2023-07-13T08:19:46;8.70;;;5.03;;
19024;SDS011;9645;51.448;6.260;2023-07-13T08:22:13;12.47;;;4.70;;
19024;SDS011;9645;51.448;6.260;2023-07-13T08:24:40;10.20;;;4.30;;
19024;SDS011;9645;51.448;6.260;2023-07-13T08:27:08;9.40;;;4.73;;
19024;SDS011;9645;51.448;6.260;2023-07-13T08:29:37;6.83;;;4.17;;
19024;SDS011;9645;51.448;6.260;2023-07-13T08:32:06;11.40;;;4.40;;
19024;SDS011;9645;51.448;6.260;2023-07-13T08:34:36;12.63;;;4.20;;
19024;SDS011;9645;51.448;6.260;2023-07-13T08:37:03;8.03;;;4.17;;
19024;SDS011;9645;51.448;6.260;2023-07-13T08:39:30;10.23;;;4.63;;
19024;SDS011;9645;51.448;6.260;2023-07-13T08:41:58;20.67;;;4.53;;
19024;SDS011;9645;51.448;6.260;2023-07-13T08:44:30;16.90;;;4.33;;
19024;SDS011;9645;51.448;6.260;2023-07-13T08:47:08;8.07;;;4.47;;
19024;SDS011;9645;51.448;6.260;2023-07-13T08:49:36;15.03;;;4.93;;
19024;SDS011;9645;51.448;6.260;2023-07-13T08:52:04;14.03;;;4.37;;
19024;SDS011;9645;51.448;6.260;2023-07-13T08:54:36;15.60;;;5.77;;
19024;SDS011;9645;51.448;6.260;2023-07-13T08:57:09;13.07;;;4.50;;
19024;SDS011;9645;51.448;6.260;2023-07-13T08:59:41;12.13;;;4.50;;
19024;SDS011;9645;51.448;6.260;2023-07-13T09:02:20;11.57;;;4.63;;
19024;SDS011;9645;51.448;6.260;2023-07-13T09:04:53;9.50;;;4.40;;
19024;SDS011;9645;51.448;6.260;2023-07-13T09:07:31;15.60;;;4.87;;
19024;SDS011;9645;51.448;6.260;2023-07-13T09:10:09;15.57;;;5.40;;
19024;SDS011;9645;51.448;6.260;2023-07-13T09:12:44;16.93;;;4.73;;
19024;SDS011;9645;51.448;6.260;2023-07-13T09:15:27;14.97;;;4.53;;
19024;SDS011;9645;51.448;6.260;2023-07-13T09:17:58;9.70;;;4.63;;
19024;SDS011;9645;51.448;6.260;2023-07-13T09:20:30;24.53;;;4.97;;
19024;SDS011;9645;51.448;6.260;2023-07-13T09:23:01;27.37;;;5.10;;
19024;SDS011;9645;51.448;6.260;2023-07-13T09:25:31;11.90;;;4.63;;
19024;SDS011;9645;51.448;6.260;2023-07-13T09:28:01;19.53;;;4.90;;
19024;SDS011;9645;51.448;6.260;2023-07-13T09:30:38;11.53;;;4.33;;
19024;SDS011;9645;51.448;6.260;2023-07-13T09:33:10;12.17;;;4.00;;
19024;SDS011;9645;51.448;6.260;2023-07-13T09:35:39;15.90;;;3.73;;
19024;SDS011;9645;51.448;6.260;2023-07-13T09:38:13;10.73;;;4.10;;
19024;SDS011;9645;51.448;6.260;2023-07-13T09:40:49;8.20;;;3.93;;
19024;SDS011;9645;51.448;6.260;2023-07-13T09:43:25;11.30;;;4.23;;
19024;SDS011;9645;51.448;6.260;2023-07-13T09:45:55;7.83;;;3.20;;
19024;SDS011;9645;51.448;6.260;2023-07-13T09:48:22;9.83;;;4.27;;
19024;SDS011;9645;51.448;6.260;2023-07-13T09:50:49;11.90;;;4.13;;
19024;SDS011;9645;51.448;6.260;2023-07-13T09:53:21;9.10;;;3.40;;
19024;SDS011;9645;51.448;6.260;2023-07-13T09:55:49;11.53;;;4.07;;
19024;SDS011;9645;51.448;6.260;2023-07-13T09:58:17;11.53;;;3.30;;
19024;SDS011;9645;51.448;6.260;2023-07-13T10:00:54;11.47;;;3.87;;
19024;SDS011;9645;51.448;6.260;2023-07-13T10:03:26;9.47;;;2.73;;
19024;SDS011;9645;51.448;6.260;2023-07-13T10:05:54;7.13;;;3.87;;
19024;SDS011;9645;51.448;6.260;2023-07-13T10:08:35;8.70;;;3.43;;
19024;SDS011;9645;51.448;6.260;2023-07-13T10:11:09;10.07;;;3.53;;
19024;SDS011;9645;51.448;6.260;2023-07-13T10:13:40;10.57;;;3.80;;
19024;SDS011;9645;51.448;6.260;2023-07-13T10:16:11;10.43;;;3.37;;
19024;SDS011;9645;51.448;6.260;2023-07-13T10:18:41;13.30;;;4.03;;
19024;SDS011;9645;51.448;6.260;2023-07-13T10:21:13;8.37;;;3.07;;
19024;SDS011;9645;51.448;6.260;2023-07-13T10:23:43;8.00;;;3.50;;
19024;SDS011;9645;51.448;6.260;2023-07-13T10:26:17;9.90;;;3.80;;
19024;SDS011;9645;51.448;6.260;2023-07-13T10:28:51;7.60;;;3.43;;
19024;SDS011;9645;51.448;6.260;2023-07-13T10:31:22;11.07;;;3.60;;
19024;SDS011;9645;51.448;6.260;2023-07-13T10:33:49;8.10;;;3.30;;
19024;SDS011;9645;51.448;6.260;2023-07-13T10:39:06;10.70;;;3.30;;
19024;SDS011;9645;51.448;6.260;2023-07-13T10:41:34;10.23;;;3.63;;
19024;SDS011;9645;51.448;6.260;2023-07-13T10:44:05;4.67;;;3.00;;
19024;SDS011;9645;51.448;6.260;2023-07-13T10:46:46;9.00;;;3.73;;
19024;SDS011;9645;51.448;6.260;2023-07-13T10:49:13;12.10;;;3.30;;
19024;SDS011;9645;51.448;6.260;2023-07-13T10:51:42;8.00;;;3.03;;
19024;SDS011;9645;51.448;6.260;2023-07-13T10:54:16;7.00;;;3.10;;
19024;SDS011;9645;51.448;6.260;2023-07-13T10:56:48;10.23;;;3.47;;
19024;SDS011;9645;51.448;6.260;2023-07-13T10:59:18;4.80;;;2.33;;
19024;SDS011;9645;51.448;6.260;2023-07-13T11:01:56;8.43;;;2.93;;
19024;SDS011;9645;51.448;6.260;2023-07-13T11:04:25;12.20;;;2.87;;
19024;SDS011;9645;51.448;6.260;2023-07-13T11:06:56;5.57;;;2.87;;
19024;SDS011;9645;51.448;6.260;2023-07-13T11:09:31;9.57;;;2.50;;
19024;SDS011;9645;51.448;6.260;2023-07-13T11:12:02;8.47;;;2.80;;
19024;SDS011;9645;51.448;6.260;2023-07-13T11:14:35;4.00;;;2.80;;
19024;SDS011;9645;51.448;6.260;2023-07-13T11:20:08;8.20;;;2.70;;
19024;SDS011;9645;51.448;6.260;2023-07-13T11:23:07;6.33;;;2.47;;
19024;SDS011;9645;51.448;6.260;2023-07-13T11:25:52;3.20;;;2.43;;
19024;SDS011;9645;51.448;6.260;2023-07-13T11:28:23;5.87;;;2.70;;
19024;SDS011;9645;51.448;6.260;2023-07-13T11:31:00;4.57;;;2.50;;
19024;SDS011;9645;51.448;6.260;2023-07-13T11:33:50;6.03;;;2.47;;
19024;SDS011;9645;51.448;6.260;2023-07-13T11:36:36;4.30;;;2.60;;
19024;SDS011;9645;51.448;6.260;2023-07-13T11:39:12;6.00;;;2.63;;
19024;SDS011;9645;51.448;6.260;2023-07-13T11:41:49;3.23;;;2.23;;
19024;SDS011;9645;51.448;6.260;2023-07-13T11:44:18;6.00;;;2.67;;
19024;SDS011;9645;51.448;6.260;2023-07-13T11:46:47;10.20;;;2.93;;
19024;SDS011;9645;51.448;6.260;2023-07-13T11:49:20;3.60;;;2.40;;
19024;SDS011;9645;51.448;6.260;2023-07-13T11:51:48;3.20;;;2.20;;
19024;SDS011;9645;51.448;6.260;2023-07-13T11:54:22;5.40;;;2.47;;
19024;SDS011;9645;51.448;6.260;2023-07-13T11:56:52;15.10;;;2.40;;
19024;SDS011;9645;51.448;6.260;2023-07-13T11:59:21;5.47;;;2.70;;
19024;SDS011;9645;51.448;6.260;2023-07-13T12:01:50;11.20;;;2.47;;
19024;SDS011;9645;51.448;6.260;2023-07-13T12:04:21;5.93;;;2.80;;
19024;SDS011;9645;51.448;6.260;2023-07-13T12:06:55;10.73;;;2.53;;
19024;SDS011;9645;51.448;6.260;2023-07-13T12:09:25;5.87;;;2.80;;
19024;SDS011;9645;51.448;6.260;2023-07-13T12:11:53;5.70;;;3.40;;
19024;SDS011;9645;51.448;6.260;2023-07-13T12:14:22;7.20;;;2.80;;
19024;SDS011;9645;51.448;6.260;2023-07-13T12:16:51;6.20;;;2.67;;
19024;SDS011;9645;51.448;6.260;2023-07-13T12:19:21;8.27;;;2.60;;
19024;SDS011;9645;51.448;6.260;2023-07-13T12:21:52;6.60;;;2.83;;
19024;SDS011;9645;51.448;6.260;2023-07-13T12:24:21;6.63;;;2.57;;
19024;SDS011;9645;51.448;6.260;2023-07-13T12:26:52;4.80;;;2.60;;
19024;SDS011;9645;51.448;6.260;2023-07-13T12:29:20;10.97;;;2.90;;
19024;SDS011;9645;51.448;6.260;2023-07-13T12:31:49;13.67;;;3.00;;
19024;SDS011;9645;51.448;6.260;2023-07-13T12:34:18;8.03;;;2.60;;
19024;SDS011;9645;51.448;6.260;2023-07-13T12:36:47;4.50;;;3.20;;
19024;SDS011;9645;51.448;6.260;2023-07-13T12:39:17;16.03;;;2.70;;
19024;SDS011;9645;51.448;6.260;2023-07-13T12:41:48;10.03;;;2.80;;
19024;SDS011;9645;51.448;6.260;2023-07-13T12:44:16;3.13;;;2.47;;
19024;SDS011;9645;51.448;6.260;2023-07-13T12:46:55;6.83;;;2.70;;
19024;SDS011;9645;51.448;6.260;2023-07-13T12:49:25;4.27;;;2.60;;
19024;SDS011;9645;51.448;6.260;2023-07-13T12:52:00;8.60;;;2.90;;
19024;SDS011;9645;51.448;6.260;2023-07-13T12:54:29;4.50;;;2.20;;
19024;SDS011;9645;51.448;6.260;2023-07-13T12:56:58;3.90;;;2.17;;
19024;SDS011;9645;51.448;6.260;2023-07-13T12:59:29;2.50;;;2.30;;
19024;SDS011;9645;51.448;6.260;2023-07-13T13:02:01;4.90;;;2.40;;
19024;SDS011;9645;51.448;6.260;2023-07-13T13:04:29;6.80;;;2.97;;
19024;SDS011;9645;51.448;6.260;2023-07-13T13:07:02;10.63;;;2.60;;
19024;SDS011;9645;51.448;6.260;2023-07-13T13:09:30;4.33;;;2.17;;
19024;SDS011;9645;51.448;6.260;2023-07-13T13:11:57;3.30;;;2.20;;
19024;SDS011;9645;51.448;6.260;2023-07-13T13:14:24;5.37;;;2.30;;
19024;SDS011;9645;51.448;6.260;2023-07-13T13:16:52;3.37;;;2.00;;
19024;SDS011;9645;51.448;6.260;2023-07-13T13:19:20;6.57;;;2.10;;
19024;SDS011;9645;51.448;6.260;2023-07-13T13:21:49;5.40;;;2.03;;
19024;SDS011;9645;51.448;6.260;2023-07-13T13:24:19;4.30;;;2.10;;
19024;SDS011;9645;51.448;6.260;2023-07-13T13:26:48;5.13;;;2.30;;
19024;SDS011;9645;51.448;6.260;2023-07-13T13:29:18;3.10;;;2.20;;
19024;SDS011;9645;51.448;6.260;2023-07-13T13:31:49;2.80;;;2.07;;
19024;SDS011;9645;51.448;6.260;2023-07-13T13:34:16;8.43;;;2.60;;
19024;SDS011;9645;51.448;6.260;2023-07-13T13:36:44;8.17;;;4.20;;
19024;SDS011;9645;51.448;6.260;2023-07-13T13:39:20;6.53;;;3.70;;
19024;SDS011;9645;51.448;6.260;2023-07-13T13:41:48;4.40;;;3.27;;
19024;SDS011;9645;51.448;6.260;2023-07-13T13:44:16;10.03;;;3.57;;
19024;SDS011;9645;51.448;6.260;2023-07-13T13:46:45;7.43;;;3.50;;
19024;SDS011;9645;51.448;6.260;2023-07-13T13:49:15;5.50;;;3.50;;
19024;SDS011;9645;51.448;6.260;2023-07-13T13:51:43;9.43;;;3.60;;
19024;SDS011;9645;51.448;6.260;2023-07-13T13:54:11;13.57;;;3.47;;
19024;SDS011;9645;51.448;6.260;2023-07-13T13:56:42;10.43;;;4.50;;
19024;SDS011;9645;51.448;6.260;2023-07-13T13:59:09;4.90;;;2.70;;
19024;SDS011;9645;51.448;6.260;2023-07-13T14:01:37;6.40;;;3.20;;
19024;SDS011;9645;51.448;6.260;2023-07-13T14:04:05;9.83;;;3.07;;
19024;SDS011;9645;51.448;6.260;2023-07-13T14:06:33;8.07;;;3.27;;
19024;SDS011;9645;51.448;6.260;2023-07-13T14:09:01;9.53;;;3.30;;
19024;SDS011;9645;51.448;6.260;2023-07-13T14:11:29;10.10;;;3.50;;
19024;SDS011;9645;51.448;6.260;2023-07-13T14:13:59;6.60;;;2.50;;
19024;SDS011;9645;51.448;6.260;2023-07-13T14:16:29;2.40;;;2.20;;
19024;SDS011;9645;51.448;6.260;2023-07-13T14:18:58;2.80;;;2.20;;
19024;SDS011;9645;51.448;6.260;2023-07-13T14:21:26;5.27;;;2.50;;
19024;SDS011;9645;51.448;6.260;2023-07-13T14:23:54;10.83;;;2.60;;
19024;SDS011;9645;51.448;6.260;2023-07-13T14:26:22;7.70;;;2.63;;
19024;SDS011;9645;51.448;6.260;2023-07-13T14:28:51;6.67;;;2.60;;
19024;SDS011;9645;51.448;6.260;2023-07-13T14:31:21;13.63;;;2.70;;
19024;SDS011;9645;51.448;6.260;2023-07-13T14:33:49;5.80;;;2.80;;
19024;SDS011;9645;51.448;6.260;2023-07-13T14:36:26;5.00;;;2.73;;
19024;SDS011;9645;51.448;6.260;2023-07-13T14:38:55;4.27;;;2.63;;
19024;SDS011;9645;51.448;6.260;2023-07-13T14:41:23;8.57;;;2.90;;
19024;SDS011;9645;51.448;6.260;2023-07-13T14:43:51;6.60;;;2.53;;
19024;SDS011;9645;51.448;6.260;2023-07-13T14:46:24;4.77;;;2.80;;
19024;SDS011;9645;51.448;6.260;2023-07-13T14:48:57;6.43;;;2.67;;
19024;SDS011;9645;51.448;6.260;2023-07-13T14:51:27;5.17;;;2.77;;
19024;SDS011;9645;51.448;6.260;2023-07-13T14:53:55;6.47;;;2.47;;
19024;SDS011;9645;51.448;6.260;2023-07-13T14:56:22;4.03;;;2.80;;
19024;SDS011;9645;51.448;6.260;2023-07-13T14:58:49;6.13;;;2.53;;
19024;SDS011;9645;51.448;6.260;2023-07-13T15:01:18;4.00;;;2.50;;
19024;SDS011;9645;51.448;6.260;2023-07-13T15:03:49;4.27;;;2.30;;
19024;SDS011;9645;51.448;6.260;2023-07-13T15:06:18;9.20;;;2.83;;
19024;SDS011;9645;51.448;6.260;2023-07-13T15:08:45;11.77;;;3.10;;
19024;SDS011;9645;51.448;6.260;2023-07-13T15:11:13;2.90;;;2.33;;
19024;SDS011;9645;51.448;6.260;2023-07-13T15:13:41;6.07;;;2.70;;